Verona, Missouri
Current Conditions -  °F | °C
As of 6:55 PM on Tuesday 21 Oct 2014 (Local Time) from KHFJ Reporting Station
Clear Clear  
Wind Chill: 64°   Ceiling: Unl
Heat Index: 64°   Visibility: 10mi
Dew Point: 48°   Wind: 5mph
Humidity: 56%   Direction: 60°ENE
Pressure: 30.07"   Gusts: NA
Location:  36.96°N, 93.8°W
Report Text: KHFJ 212355Z AUTO 06004KT 10SM CLR 18/09 A3007 RMK AO2
Loading
Personal Weather Stations






























Interactive Weather Map
Tropical Storm Tracking
New forecast layout! Learn more

10-Day Weather Forecast

Advertisements
Track Severe Weather on mobile